createdAt,value
2023-04-27T00:01:00.770Z,82.98
2023-04-27T00:03:28.513Z,82.82
2023-04-27T00:05:55.167Z,82.83
2023-04-27T00:08:22.066Z,82.82
2023-04-27T00:10:48.542Z,83.02
2023-04-27T00:13:15.018Z,82.70
2023-04-27T00:15:41.667Z,83.02
2023-04-27T00:18:08.270Z,82.85
2023-04-27T00:20:34.773Z,82.64
2023-04-27T00:23:01.308Z,82.91
2023-04-27T00:25:27.816Z,82.94
2023-04-27T00:27:54.364Z,82.58
2023-04-27T00:30:20.830Z,82.77
2023-04-27T00:32:47.911Z,82.96
2023-04-27T00:35:14.515Z,83.16
2023-04-27T00:37:41.332Z,83.35
2023-04-27T00:40:08.695Z,83.15
2023-04-27T00:42:36.100Z,83.60
2023-04-27T00:45:03.489Z,83.92
2023-04-27T00:47:31.031Z,82.74
2023-04-27T00:49:57.560Z,83.61
2023-04-27T00:52:24.123Z,83.56
2023-04-27T00:54:51.817Z,83.43
2023-04-27T00:57:18.977Z,83.49
2023-04-27T00:59:46.106Z,83.51
2023-04-27T01:02:13.653Z,83.41
2023-04-27T01:04:41.295Z,83.44
2023-04-27T01:07:08.113Z,83.97
2023-04-27T01:09:34.705Z,83.87
2023-04-27T01:12:01.338Z,84.78
2023-04-27T01:14:27.840Z,84.14
2023-04-27T01:16:54.519Z,83.36
2023-04-27T01:19:21.105Z,84.11
2023-04-27T01:21:47.568Z,83.55
2023-04-27T01:24:14.005Z,84.06
2023-04-27T01:26:40.602Z,84.22
2023-04-27T01:29:07.139Z,84.39
2023-04-27T01:31:33.679Z,85.09
2023-04-27T01:34:00.271Z,84.97
2023-04-27T01:36:27.673Z,85.00
2023-04-27T01:38:54.238Z,84.89
2023-04-27T01:41:20.818Z,84.24
2023-04-27T01:43:47.344Z,84.22
2023-04-27T01:46:14.794Z,84.37
2023-04-27T01:48:41.703Z,84.20
2023-04-27T01:51:08.229Z,84.66
2023-04-27T01:53:35.018Z,84.12
2023-04-27T01:56:01.621Z,83.39
2023-04-27T01:58:28.263Z,84.33
2023-04-27T02:00:54.907Z,84.28
2023-04-27T02:03:21.782Z,84.57
2023-04-27T02:05:48.434Z,84.51
2023-04-27T02:08:14.950Z,84.33
2023-04-27T02:10:41.634Z,84.09
2023-04-27T02:13:08.232Z,83.52
2023-04-27T02:15:35.457Z,83.64
2023-04-27T02:18:03.510Z,83.93
2023-04-27T02:20:31.322Z,84.34
2023-04-27T02:22:57.877Z,84.10
2023-04-27T02:25:24.852Z,84.51
2023-04-27T02:27:51.363Z,84.12
2023-04-27T02:30:18.196Z,84.28
2023-04-27T02:32:46.320Z,84.57
2023-04-27T02:35:12.974Z,84.23
2023-04-27T02:37:39.617Z,84.51
2023-04-27T02:40:07.986Z,84.22
2023-04-27T02:42:34.570Z,84.33
2023-04-27T02:45:01.224Z,84.75
2023-04-27T02:47:27.705Z,84.61
2023-04-27T02:49:54.230Z,84.36
2023-04-27T02:52:20.717Z,84.00
2023-04-27T02:54:47.204Z,84.61
2023-04-27T02:57:13.666Z,84.56
2023-04-27T02:59:40.162Z,84.61
2023-04-27T03:02:06.677Z,84.37
2023-04-27T03:04:33.224Z,84.37
2023-04-27T03:06:59.707Z,84.38
2023-04-27T03:09:26.196Z,84.52
2023-04-27T03:11:52.826Z,85.20
2023-04-27T03:14:19.371Z,85.03
2023-04-27T03:16:46.025Z,85.16
2023-04-27T03:19:12.869Z,85.12
2023-04-27T03:21:39.426Z,85.10
2023-04-27T03:24:06.133Z,85.22
2023-04-27T03:26:32.632Z,84.91
2023-04-27T03:28:59.110Z,85.23
2023-04-27T03:31:25.620Z,85.57
2023-04-27T03:33:52.184Z,85.70
2023-04-27T03:36:18.679Z,85.53
2023-04-27T03:38:45.149Z,86.54
2023-04-27T03:41:12.486Z,85.97
2023-04-27T03:43:38.997Z,86.16
2023-04-27T03:46:05.523Z,86.10
2023-04-27T03:48:32.026Z,85.25
2023-04-27T03:50:59.957Z,85.45
2023-04-27T03:53:26.675Z,85.77
2023-04-27T03:55:53.193Z,85.40
2023-04-27T03:58:19.660Z,85.49
2023-04-27T04:00:46.122Z,85.61
2023-04-27T04:03:12.883Z,85.21
2023-04-27T04:05:39.506Z,85.13
2023-04-27T04:08:06.299Z,84.96
2023-04-27T04:10:32.804Z,85.46
2023-04-27T04:12:59.276Z,85.12
2023-04-27T04:15:25.762Z,85.27
2023-04-27T04:17:52.445Z,85.18
2023-04-27T04:20:19.012Z,85.66
2023-04-27T04:22:45.590Z,85.28
2023-04-27T04:25:13.011Z,85.23
2023-04-27T04:27:40.111Z,85.47
2023-04-27T04:30:07.378Z,85.77
2023-04-27T04:32:37.678Z,85.85
2023-04-27T04:35:06.003Z,85.55
2023-04-27T04:37:36.429Z,85.29
2023-04-27T04:40:08.974Z,85.50
2023-04-27T04:42:39.507Z,85.29
2023-04-27T04:45:07.290Z,85.32
2023-04-27T04:47:34.324Z,85.24
2023-04-27T04:50:01.166Z,85.06
2023-04-27T04:52:27.822Z,84.99
2023-04-27T04:54:54.389Z,85.56
2023-04-27T04:57:21.271Z,85.86
2023-04-27T04:59:47.783Z,85.60
2023-04-27T05:02:14.290Z,86.46
2023-04-27T05:04:41.052Z,86.17
2023-04-27T05:07:07.671Z,86.13
2023-04-27T05:09:34.103Z,86.34
2023-04-27T05:12:01.855Z,86.23
2023-04-27T05:14:28.482Z,87.21
2023-04-27T05:16:55.169Z,87.03
2023-04-27T05:19:21.840Z,86.89
2023-04-27T05:21:48.572Z,87.59
2023-04-27T05:24:15.127Z,87.40
2023-04-27T05:26:42.875Z,87.28
2023-04-27T05:29:09.360Z,87.62
2023-04-27T05:31:36.361Z,87.11
2023-04-27T05:34:03.058Z,87.02
2023-04-27T05:36:29.618Z,86.66
2023-04-27T05:38:56.254Z,87.07
2023-04-27T05:41:23.761Z,86.88
2023-04-27T05:43:50.268Z,86.67
2023-04-27T05:46:16.867Z,87.05
2023-04-27T05:48:43.427Z,87.36
2023-04-27T05:51:10.147Z,88.24
2023-04-27T05:53:36.660Z,88.26
2023-04-27T05:56:04.643Z,88.60
2023-04-27T05:58:31.349Z,88.69
2023-04-27T06:00:57.933Z,87.59
2023-04-27T06:03:24.870Z,87.08
2023-04-27T06:05:58.164Z,86.31
2023-04-27T06:08:25.960Z,85.42
2023-04-27T06:10:52.513Z,84.69
2023-04-27T06:13:19.620Z,84.75
2023-04-27T06:15:46.526Z,84.36
2023-04-27T06:18:13.328Z,83.97
2023-04-27T06:20:39.887Z,83.42
2023-04-27T06:23:06.361Z,83.39
2023-04-27T06:25:32.876Z,82.91
2023-04-27T06:27:59.553Z,82.71
2023-04-27T06:30:26.120Z,82.19
2023-04-27T06:32:52.804Z,81.81
2023-04-27T06:35:19.408Z,81.19
2023-04-27T06:37:47.443Z,80.92
2023-04-27T06:40:13.973Z,81.10
2023-04-27T06:42:40.416Z,81.06
2023-04-27T06:45:07.449Z,80.45
2023-04-27T06:47:33.887Z,80.23
2023-04-27T06:50:00.602Z,79.97
2023-04-27T06:52:27.371Z,79.31
2023-04-27T06:54:54.082Z,79.57
2023-04-27T06:57:20.527Z,79.25
2023-04-27T06:59:46.953Z,78.20
2023-04-27T07:02:13.485Z,77.40
2023-04-27T07:04:40.240Z,76.66
2023-04-27T07:07:06.968Z,75.71
2023-04-27T07:09:33.753Z,74.69
2023-04-27T07:12:01.369Z,74.19
2023-04-27T07:14:27.820Z,73.96
2023-04-27T07:16:54.833Z,72.53
2023-04-27T07:19:21.303Z,71.38
2023-04-27T07:21:48.000Z,70.38
2023-04-27T07:24:14.449Z,70.62
2023-04-27T07:26:41.389Z,70.81
2023-04-27T07:29:22.842Z,70.97
2023-04-27T07:31:52.892Z,70.20
2023-04-27T07:34:19.491Z,69.20
2023-04-27T07:36:45.962Z,68.86
2023-04-27T07:39:12.793Z,68.75
2023-04-27T07:41:39.475Z,68.60
2023-04-27T07:44:06.066Z,68.18
2023-04-27T07:46:32.769Z,67.23
2023-04-27T07:49:00.078Z,66.42
2023-04-27T07:51:28.658Z,65.78
2023-04-27T07:53:55.689Z,65.35
2023-04-27T07:56:22.256Z,65.99
2023-04-27T07:58:48.817Z,64.77
2023-04-27T08:01:15.338Z,63.97
2023-04-27T08:03:42.184Z,63.41
2023-04-27T08:06:09.215Z,64.98
2023-04-27T08:08:36.291Z,65.69
2023-04-27T08:11:03.055Z,64.49
2023-04-27T08:13:29.530Z,63.34
2023-04-27T08:15:58.453Z,62.30
2023-04-27T08:18:26.093Z,61.59
2023-04-27T08:20:52.776Z,61.08
2023-04-27T08:23:19.295Z,60.56
2023-04-27T08:25:45.801Z,59.86
2023-04-27T08:28:13.376Z,61.52
2023-04-27T08:30:41.674Z,59.89
2023-04-27T08:33:08.706Z,58.59
2023-04-27T08:35:35.470Z,59.75
2023-04-27T08:38:02.018Z,58.85
2023-04-27T08:40:28.621Z,57.94
2023-04-27T08:42:59.766Z,59.42
2023-04-27T08:45:27.469Z,59.18
2023-04-27T08:47:54.537Z,58.30
2023-04-27T08:50:21.475Z,56.98
2023-04-27T08:52:48.780Z,58.59
2023-04-27T08:55:16.721Z,56.38
2023-04-27T08:58:01.264Z,57.23
2023-04-27T09:00:40.613Z,56.75
2023-04-27T09:03:08.215Z,56.55
2023-04-27T09:05:35.102Z,56.56
2023-04-27T09:08:08.086Z,55.74
2023-04-27T09:10:46.016Z,54.98
2023-04-27T09:13:12.505Z,53.99
2023-04-27T09:15:48.559Z,54.70
2023-04-27T09:18:21.087Z,52.93
2023-04-27T09:20:49.683Z,51.89
2023-04-27T09:23:36.922Z,53.10
2023-04-27T09:26:08.559Z,51.13
2023-04-27T09:28:38.472Z,51.67
2023-04-27T09:31:05.447Z,49.83
2023-04-27T09:33:34.101Z,49.70
2023-04-27T09:36:04.772Z,49.77
2023-04-27T09:38:31.856Z,50.26
2023-04-27T09:40:59.215Z,50.04
2023-04-27T09:43:27.421Z,51.44
2023-04-27T09:45:57.729Z,49.11
2023-04-27T09:48:26.163Z,49.03
2023-04-27T09:50:53.415Z,48.88
2023-04-27T09:53:54.126Z,48.70
2023-04-27T09:56:39.428Z,46.94
2023-04-27T09:59:26.926Z,49.77
2023-04-27T10:02:02.784Z,48.76
2023-04-27T10:04:37.783Z,48.62
2023-04-27T10:07:10.114Z,46.78
2023-04-27T10:09:48.014Z,47.40
2023-04-27T10:12:36.254Z,44.78
2023-04-27T10:15:18.090Z,44.70
2023-04-27T10:17:50.082Z,43.80
2023-04-27T10:20:17.896Z,43.88
2023-04-27T10:22:47.573Z,45.19
2023-04-27T10:25:40.651Z,47.41
2023-04-27T10:28:10.094Z,44.43
2023-04-27T10:30:43.853Z,45.17
2023-04-27T10:33:11.985Z,42.91
2023-04-27T10:35:40.818Z,44.30
2023-04-27T10:38:11.146Z,45.20
2023-04-27T10:40:38.618Z,44.10
2023-04-27T10:43:09.864Z,43.08
2023-04-27T10:45:36.381Z,44.39
2023-04-27T10:48:02.943Z,44.15
2023-04-27T10:50:29.533Z,41.78
2023-04-27T10:53:01.921Z,41.42
2023-04-27T10:55:28.681Z,39.76
2023-04-27T10:57:56.387Z,40.50
2023-04-27T11:00:31.455Z,42.95
2023-04-27T11:03:11.662Z,44.48
2023-04-27T11:05:38.739Z,41.11
2023-04-27T11:08:09.725Z,40.08
2023-04-27T11:10:39.700Z,41.65
2023-04-27T11:13:11.370Z,43.21
2023-04-27T11:15:48.949Z,42.05
2023-04-27T11:18:17.274Z,43.38
2023-04-27T11:20:45.576Z,42.18
2023-04-27T11:23:23.399Z,40.39
2023-04-27T11:25:49.867Z,40.97
2023-04-27T11:28:24.300Z,43.61
2023-04-27T11:31:00.177Z,42.20
2023-04-27T11:33:27.642Z,40.37
2023-04-27T11:35:54.775Z,40.75
2023-04-27T11:38:22.002Z,41.51
2023-04-27T11:41:06.387Z,41.80
2023-04-27T11:43:33.597Z,41.30
2023-04-27T11:46:08.234Z,41.59
2023-04-27T11:48:37.533Z,41.04
2023-04-27T11:51:05.729Z,41.00
2023-04-27T11:53:36.940Z,39.21
2023-04-27T11:56:11.093Z,39.50
2023-04-27T11:58:39.366Z,41.05
2023-04-27T12:01:07.273Z,41.18
2023-04-27T12:03:34.738Z,39.10
2023-04-27T12:08:31.432Z,40.86
2023-04-27T12:10:57.944Z,39.27
2023-04-27T12:13:24.514Z,39.54
2023-04-27T12:15:50.971Z,40.81
2023-04-27T12:18:17.486Z,37.64
2023-04-27T12:20:44.011Z,39.14
2023-04-27T12:23:10.721Z,37.61
2023-04-27T12:25:37.608Z,36.43
2023-04-27T12:28:04.342Z,36.86
2023-04-27T12:30:30.941Z,36.44
2023-04-27T12:32:59.598Z,37.06
2023-04-27T12:35:26.363Z,36.95
2023-04-27T12:37:53.004Z,36.54
2023-04-27T12:40:19.654Z,36.95
2023-04-27T12:42:46.224Z,33.71
2023-04-27T12:45:12.666Z,34.05
2023-04-27T12:47:58.169Z,34.82
2023-04-27T12:50:26.894Z,38.10
2023-04-27T12:52:53.513Z,35.58
2023-04-27T12:55:32.146Z,35.17
2023-04-27T12:58:00.036Z,35.77
2023-04-27T13:00:26.552Z,35.61
2023-04-27T13:02:53.705Z,37.21
2023-04-27T13:05:22.060Z,34.91
2023-04-27T13:07:48.635Z,35.25
2023-04-27T13:10:15.392Z,36.95
2023-04-27T13:12:41.911Z,34.53
2023-04-27T13:15:09.264Z,35.49
2023-04-27T13:17:35.754Z,36.84
2023-04-27T13:20:02.369Z,36.28
2023-04-27T13:22:28.951Z,36.64
2023-04-27T13:24:55.567Z,36.04
2023-04-27T13:27:25.132Z,35.74
2023-04-27T13:29:51.775Z,34.97
2023-04-27T13:32:18.581Z,36.12
2023-04-27T13:34:45.194Z,35.42
2023-04-27T13:37:11.877Z,35.68
2023-04-27T13:39:38.394Z,36.54
2023-04-27T13:42:04.988Z,36.91
2023-04-27T13:44:31.857Z,35.00
2023-04-27T13:46:58.541Z,37.99
2023-04-27T13:49:25.949Z,34.95
2023-04-27T13:51:52.868Z,36.05
2023-04-27T13:54:21.393Z,35.70
2023-04-27T13:56:48.024Z,35.47
2023-04-27T13:59:16.157Z,37.75
2023-04-27T14:01:42.800Z,38.07
2023-04-27T14:04:10.099Z,37.44
2023-04-27T14:06:36.775Z,36.95
2023-04-27T14:09:04.014Z,36.62
2023-04-27T14:11:30.557Z,37.08
2023-04-27T14:13:58.012Z,36.10
2023-04-27T14:16:24.779Z,36.07
2023-04-27T14:18:52.377Z,37.46
2023-04-27T14:21:18.983Z,37.85
2023-04-27T14:23:45.463Z,38.23
2023-04-27T14:26:12.052Z,37.21
2023-04-27T14:28:38.591Z,37.77
2023-04-27T14:31:05.103Z,36.57
2023-04-27T14:33:31.743Z,36.91
2023-04-27T14:35:58.318Z,36.60
2023-04-27T14:38:24.805Z,37.47
2023-04-27T14:40:51.323Z,37.57
2023-04-27T14:43:18.010Z,36.31
2023-04-27T14:45:52.424Z,35.61
2023-04-27T14:48:20.946Z,36.88
2023-04-27T14:50:47.481Z,36.24
2023-04-27T14:53:14.006Z,35.19
2023-04-27T14:55:41.466Z,36.67
2023-04-27T14:58:07.993Z,36.08
2023-04-27T15:00:34.693Z,37.25
2023-04-27T15:03:01.425Z,37.41
2023-04-27T15:05:28.117Z,36.72
2023-04-27T15:07:54.627Z,37.37
2023-04-27T15:10:21.187Z,36.07
2023-04-27T15:12:47.645Z,36.38
2023-04-27T15:15:14.210Z,36.37
2023-04-27T15:17:41.731Z,35.59
2023-04-27T15:20:08.712Z,36.42
2023-04-27T15:22:35.247Z,37.14
2023-04-27T15:25:01.812Z,35.65
2023-04-27T15:27:28.351Z,34.32
2023-04-27T15:29:55.264Z,35.55
2023-04-27T15:32:24.543Z,35.43
2023-04-27T15:34:51.829Z,36.40
2023-04-27T15:37:18.474Z,35.45
2023-04-27T15:39:44.947Z,35.69
2023-04-27T15:42:11.459Z,34.86
2023-04-27T15:44:37.938Z,34.17
2023-04-27T15:47:04.882Z,35.88
2023-04-27T15:49:34.379Z,33.40
2023-04-27T15:52:04.666Z,34.95
2023-04-27T15:54:31.108Z,34.21
2023-04-27T15:57:01.067Z,34.37
2023-04-27T15:59:28.060Z,36.10
2023-04-27T16:01:54.548Z,35.63
2023-04-27T16:04:21.443Z,36.36
2023-04-27T16:06:47.958Z,37.52
2023-04-27T16:09:14.955Z,36.64
2023-04-27T16:11:42.727Z,36.70
2023-04-27T16:14:09.465Z,37.52
2023-04-27T16:16:36.176Z,39.07
2023-04-27T16:19:02.674Z,36.85
2023-04-27T16:21:29.157Z,35.94
2023-04-27T16:23:55.709Z,36.85
2023-04-27T16:26:22.151Z,35.24
2023-04-27T16:28:48.633Z,37.13
2023-04-27T16:31:15.086Z,33.74
2023-04-27T16:33:41.897Z,34.11
2023-04-27T16:36:10.548Z,36.44
2023-04-27T16:38:39.131Z,36.10
2023-04-27T16:41:06.006Z,36.40
2023-04-27T16:43:33.266Z,35.84
2023-04-27T16:45:59.785Z,35.36
2023-04-27T16:48:27.390Z,36.94
2023-04-27T16:50:55.193Z,38.11
2023-04-27T16:53:22.406Z,37.04
2023-04-27T16:55:48.932Z,37.57
2023-04-27T16:58:15.503Z,37.92
2023-04-27T17:00:42.015Z,38.21
2023-04-27T17:03:09.743Z,37.92
2023-04-27T17:05:36.969Z,36.54
2023-04-27T17:08:05.343Z,36.89
2023-04-27T17:10:32.351Z,37.86
2023-04-27T17:12:59.187Z,38.03
2023-04-27T17:15:26.579Z,37.58
2023-04-27T17:17:53.177Z,37.60
2023-04-27T17:20:19.807Z,36.68
2023-04-27T17:22:46.321Z,38.07
2023-04-27T17:25:12.787Z,38.46
2023-04-27T17:27:39.420Z,38.56
2023-04-27T17:30:08.267Z,37.67
2023-04-27T17:32:35.092Z,37.97
2023-04-27T17:35:01.587Z,38.90
2023-04-27T17:37:28.092Z,38.61
2023-04-27T17:39:54.743Z,40.30
2023-04-27T17:42:21.261Z,40.50
2023-04-27T17:44:47.785Z,39.85
2023-04-27T17:47:14.473Z,40.91
2023-04-27T17:49:41.076Z,40.72
2023-04-27T17:52:07.692Z,38.65
2023-04-27T17:54:34.159Z,39.96
2023-04-27T17:57:00.692Z,40.84
2023-04-27T17:59:27.629Z,41.53
2023-04-27T18:01:54.170Z,41.49
2023-04-27T18:04:21.510Z,41.76
2023-04-27T18:06:48.274Z,42.18
2023-04-27T18:09:14.998Z,43.43
2023-04-27T18:11:41.753Z,42.83
2023-04-27T18:14:08.479Z,42.18
2023-04-27T18:16:35.166Z,43.84
2023-04-27T18:19:01.685Z,42.82
2023-04-27T18:21:28.725Z,43.29
2023-04-27T18:23:55.234Z,43.57
2023-04-27T18:26:22.275Z,42.53
2023-04-27T18:28:48.755Z,42.36
2023-04-27T18:31:20.213Z,43.29
2023-04-27T18:33:47.072Z,43.08
2023-04-27T18:36:13.743Z,43.43
2023-04-27T18:38:40.552Z,44.14
2023-04-27T18:41:07.740Z,43.90
2023-04-27T18:43:36.533Z,45.37
2023-04-27T18:46:04.081Z,45.35
2023-04-27T18:48:30.727Z,45.85
2023-04-27T18:50:57.236Z,46.02
2023-04-27T18:53:23.968Z,45.09
2023-04-27T18:55:50.543Z,44.91
2023-04-27T18:58:17.005Z,44.95
2023-04-27T19:00:43.595Z,44.21
2023-04-27T19:03:10.909Z,45.70
2023-04-27T19:05:40.697Z,45.70
2023-04-27T19:08:07.449Z,46.37
2023-04-27T19:10:33.959Z,45.22
2023-04-27T19:13:00.605Z,45.01
2023-04-27T19:15:27.247Z,45.45
2023-04-27T19:18:06.610Z,46.66
2023-04-27T19:20:36.310Z,46.48
2023-04-27T19:23:02.906Z,45.90
2023-04-27T19:25:29.678Z,45.99
2023-04-27T19:27:56.441Z,46.08
2023-04-27T19:30:22.939Z,45.67
2023-04-27T19:32:49.479Z,46.02
2023-04-27T19:35:16.191Z,45.98
2023-04-27T19:37:42.714Z,46.13
2023-04-27T19:40:09.785Z,46.32
2023-04-27T19:42:36.300Z,45.91
2023-04-27T19:45:03.938Z,46.88
2023-04-27T19:47:30.877Z,45.71
2023-04-27T19:49:58.963Z,46.41
2023-04-27T19:52:26.196Z,46.82
2023-04-27T19:54:53.814Z,45.75
2023-04-27T19:57:21.221Z,44.98
2023-04-27T19:59:48.029Z,45.16
2023-04-27T20:02:14.838Z,45.01
2023-04-27T20:04:41.711Z,45.27
2023-04-27T20:07:08.799Z,46.10
2023-04-27T20:09:35.347Z,46.58
2023-04-27T20:12:02.074Z,46.31
2023-04-27T20:14:31.176Z,46.47
2023-04-27T20:16:57.916Z,46.54
2023-04-27T20:19:25.188Z,46.51
2023-04-27T20:21:51.826Z,46.14
2023-04-27T20:24:18.784Z,47.26
2023-04-27T20:26:46.337Z,47.36
2023-04-27T20:29:13.113Z,47.34
2023-04-27T20:31:39.668Z,46.96
2023-04-27T20:34:06.393Z,47.37
2023-04-27T20:36:33.240Z,46.69
2023-04-27T20:39:02.452Z,45.98
2023-04-27T20:41:28.901Z,47.21
2023-04-27T20:43:55.423Z,46.97
2023-04-27T20:46:22.139Z,47.29
2023-04-27T20:48:48.624Z,47.63
2023-04-27T20:51:15.146Z,47.80
2023-04-27T20:53:41.715Z,48.02
2023-04-27T20:56:09.047Z,47.02
2023-04-27T20:58:35.815Z,47.83
2023-04-27T21:01:02.345Z,47.64
2023-04-27T21:03:29.054Z,48.03
2023-04-27T21:05:55.979Z,47.37
2023-04-27T21:08:22.524Z,46.38
2023-04-27T21:10:49.071Z,47.94
2023-04-27T21:13:15.707Z,47.24
2023-04-27T21:15:42.175Z,47.55
2023-04-27T21:18:16.026Z,48.12
2023-04-27T21:20:50.118Z,47.87
2023-04-27T21:23:16.965Z,48.21
2023-04-27T21:25:44.913Z,48.03
2023-04-27T21:28:11.667Z,48.75
2023-04-27T21:30:38.536Z,49.18
2023-04-27T21:33:05.150Z,48.88
2023-04-27T21:35:32.271Z,48.51
2023-04-27T21:37:59.153Z,48.50
2023-04-27T21:40:26.074Z,48.90
2023-04-27T21:42:53.690Z,49.03
2023-04-27T21:45:20.968Z,48.66
2023-04-27T21:47:47.941Z,49.11
2023-04-27T21:50:14.486Z,48.55
2023-04-27T21:52:40.906Z,48.28
2023-04-27T21:55:08.019Z,48.51
2023-04-27T21:57:34.590Z,48.95
2023-04-27T22:00:01.757Z,49.32
2023-04-27T22:02:29.464Z,50.19
2023-04-27T22:04:56.519Z,49.17
2023-04-27T22:07:24.605Z,49.81
2023-04-27T22:09:51.036Z,50.07
2023-04-27T22:12:18.673Z,49.42
2023-04-27T22:14:46.864Z,49.60
2023-04-27T22:17:13.340Z,50.23
2023-04-27T22:19:39.841Z,49.59
2023-04-27T22:22:06.660Z,49.33
2023-04-27T22:24:33.160Z,49.21
2023-04-27T22:26:59.741Z,49.46
2023-04-27T22:29:26.744Z,48.53
2023-04-27T22:31:53.348Z,49.24
2023-04-27T22:34:19.989Z,49.02
2023-04-27T22:36:46.652Z,49.60
2023-04-27T22:39:13.159Z,48.81
2023-04-27T22:41:39.889Z,49.45
2023-04-27T22:44:06.372Z,49.24
2023-04-27T22:46:32.870Z,50.16
2023-04-27T22:49:01.409Z,49.95
2023-04-27T22:51:27.956Z,49.48
2023-04-27T22:53:54.779Z,49.33
2023-04-27T22:56:21.330Z,49.70
2023-04-27T22:58:47.888Z,49.95
2023-04-27T23:01:14.435Z,50.86
2023-04-27T23:03:41.224Z,49.58
2023-04-27T23:06:14.261Z,50.33
2023-04-27T23:08:46.896Z,49.79
2023-04-27T23:11:13.806Z,50.21
2023-04-27T23:13:40.465Z,50.76
2023-04-27T23:16:07.784Z,50.18
2023-04-27T23:18:34.295Z,50.67
2023-04-27T23:21:00.820Z,50.56
2023-04-27T23:23:27.324Z,50.86
2023-04-27T23:25:53.878Z,51.18
2023-04-27T23:28:20.803Z,51.42
2023-04-27T23:30:54.479Z,51.36
2023-04-27T23:33:21.866Z,50.94
2023-04-27T23:35:48.383Z,51.52
2023-04-27T23:38:14.846Z,51.56
2023-04-27T23:40:41.350Z,51.68
2023-04-27T23:43:07.817Z,51.20
2023-04-27T23:45:34.291Z,51.19
2023-04-27T23:48:00.763Z,50.95
2023-04-27T23:50:27.273Z,51.43
2023-04-27T23:52:53.731Z,51.44
2023-04-27T23:55:20.397Z,51.69
2023-04-27T23:57:46.970Z,51.03
